createdAt,value
2023-04-15T00:00:30.000Z,2425.0
2023-04-15T00:01:29.000Z,2396.0
2023-04-15T00:02:29.000Z,2294.0
2023-04-15T00:03:28.000Z,2352.0
2023-04-15T00:04:29.000Z,2323.0
2023-04-15T00:05:29.000Z,2263.0
2023-04-15T00:06:29.000Z,2267.0
2023-04-15T00:07:29.000Z,2175.0
2023-04-15T00:08:28.000Z,2184.0
2023-04-15T00:09:29.000Z,2231.0
2023-04-15T00:10:29.000Z,2145.0
2023-04-15T00:11:29.000Z,2105.0
2023-04-15T00:12:29.000Z,2169.0
2023-04-15T00:13:28.000Z,2251.0
2023-04-15T00:14:29.000Z,2387.0
2023-04-15T00:15:29.000Z,2413.0
2023-04-15T00:16:28.000Z,2378.0
2023-04-15T00:17:29.000Z,2254.0
2023-04-15T00:18:29.000Z,2238.0
2023-04-15T00:19:29.000Z,2150.0
2023-04-15T00:20:29.000Z,2184.0
2023-04-15T00:21:28.000Z,2206.0
2023-04-15T00:22:29.000Z,2258.0
2023-04-15T00:23:29.000Z,2340.0
2023-04-15T00:24:29.000Z,2443.0
2023-04-15T00:25:29.000Z,2423.0
2023-04-15T00:26:30.000Z,2437.0
2023-04-15T00:27:29.000Z,2403.0
2023-04-15T00:28:29.000Z,2316.0
2023-04-15T00:29:28.000Z,2344.0
2023-04-15T00:30:29.000Z,2344.0
2023-04-15T00:31:29.000Z,2339.0
2023-04-15T00:32:29.000Z,2406.0
2023-04-15T00:33:29.000Z,2340.0
2023-04-15T00:34:28.000Z,2325.0
2023-04-15T00:35:29.000Z,2269.0
2023-04-15T00:36:29.000Z,2166.0
2023-04-15T00:37:30.000Z,2072.0
2023-04-15T00:38:29.000Z,2020.0
2023-04-15T00:39:29.000Z,1958.0
2023-04-15T00:40:28.000Z,1880.0
2023-04-15T00:41:29.000Z,1984.0
2023-04-15T00:42:29.000Z,1948.0
2023-04-15T00:43:29.000Z,1953.0
2023-04-15T00:44:29.000Z,2027.0
2023-04-15T00:45:28.000Z,1957.0
2023-04-15T00:46:29.000Z,1923.0
2023-04-15T00:47:29.000Z,2054.0
2023-04-15T00:48:29.000Z,2053.0
2023-04-15T00:49:29.000Z,2018.0
2023-04-15T00:50:30.000Z,2036.0
2023-04-15T00:51:29.000Z,2076.0
2023-04-15T00:52:29.000Z,2126.0
2023-04-15T00:53:28.000Z,2128.0
2023-04-15T00:54:29.000Z,2068.0
2023-04-15T00:55:29.000Z,1982.0
2023-04-15T00:56:29.000Z,1982.0
2023-04-15T00:57:29.000Z,1946.0
2023-04-15T00:58:28.000Z,1805.0
2023-04-15T00:59:29.000Z,1810.0
2023-04-15T01:00:29.000Z,1880.0
2023-04-15T01:01:29.000Z,1941.0
2023-04-15T01:02:29.000Z,2097.0
2023-04-15T01:03:29.000Z,2177.0
2023-04-15T01:04:29.000Z,2259.0
2023-04-15T01:05:29.000Z,2300.0
2023-04-15T01:06:28.000Z,2336.0
2023-04-15T01:07:29.000Z,2315.0
2023-04-15T01:08:29.000Z,2295.0
2023-04-15T01:09:29.000Z,2317.0
2023-04-15T01:10:29.000Z,2253.0
2023-04-15T01:11:28.000Z,2180.0
2023-04-15T01:12:29.000Z,2135.0
2023-04-15T01:13:29.000Z,2152.0
2023-04-15T01:14:28.000Z,2103.0
2023-04-15T01:15:29.000Z,2080.0
2023-04-15T01:16:30.000Z,2161.0
2023-04-15T01:17:29.000Z,2112.0
2023-04-15T01:18:29.000Z,2173.0
2023-04-15T01:19:28.000Z,2253.0
2023-04-15T01:20:29.000Z,2139.0
2023-04-15T01:21:29.000Z,2062.0
2023-04-15T01:22:29.000Z,2051.0
2023-04-15T01:23:29.000Z,2130.0
2023-04-15T01:24:28.000Z,2149.0
2023-04-15T01:25:29.000Z,2246.0
2023-04-15T01:26:29.000Z,2270.0
2023-04-15T01:27:29.000Z,2420.0
2023-04-15T01:28:29.000Z,2476.0
2023-04-15T01:29:29.000Z,2463.0
2023-04-15T01:30:29.000Z,2445.0
2023-04-15T01:31:29.000Z,2412.0
2023-04-15T01:32:28.000Z,2409.0
2023-04-15T01:33:29.000Z,2388.0
2023-04-15T01:34:29.000Z,2191.0
2023-04-15T01:35:29.000Z,2044.0
2023-04-15T01:36:29.000Z,2035.0
2023-04-15T01:37:29.000Z,2007.0
2023-04-15T01:38:29.000Z,2049.0
2023-04-15T01:39:29.000Z,2079.0
2023-04-15T01:40:28.000Z,2026.0
2023-04-15T01:41:29.000Z,2074.0
2023-04-15T01:42:29.000Z,2016.0
2023-04-15T01:43:29.000Z,1962.0
2023-04-15T01:44:29.000Z,1896.0
2023-04-15T01:45:28.000Z,1942.0
2023-04-15T01:46:29.000Z,1951.0
2023-04-15T01:47:29.000Z,1908.0
2023-04-15T01:48:29.000Z,1902.0
2023-04-15T01:49:29.000Z,1824.0
2023-04-15T01:50:28.000Z,1789.0
2023-04-15T01:51:29.000Z,1762.0
2023-04-15T01:52:29.000Z,1745.0
2023-04-15T01:53:28.000Z,1724.0
2023-04-15T01:54:29.000Z,1699.0
2023-04-15T01:55:29.000Z,1697.0
2023-04-15T01:56:29.000Z,1627.0
2023-04-15T01:57:29.000Z,1609.0
2023-04-15T01:58:28.000Z,1569.0
2023-04-15T01:59:29.000Z,1574.0
2023-04-15T02:00:29.000Z,1606.0
2023-04-15T02:01:29.000Z,1641.0
2023-04-15T02:02:29.000Z,1751.0
2023-04-15T02:03:30.000Z,1751.0
2023-04-15T02:04:29.000Z,1715.0
2023-04-15T02:05:29.000Z,1732.0
2023-04-15T02:06:28.000Z,1751.0
2023-04-15T02:07:29.000Z,1813.0
2023-04-15T02:08:29.000Z,1844.0
2023-04-15T02:09:29.000Z,1865.0
2023-04-15T02:10:29.000Z,1819.0
2023-04-15T02:11:28.000Z,1814.0
2023-04-15T02:12:29.000Z,1843.0
2023-04-15T02:13:29.000Z,1849.0
2023-04-15T02:14:29.000Z,1851.0
2023-04-15T02:15:29.000Z,1768.0
2023-04-15T02:16:30.000Z,1755.0
2023-04-15T02:17:29.000Z,1738.0
2023-04-15T02:18:29.000Z,1701.0
2023-04-15T02:19:28.000Z,1712.0
2023-04-15T02:20:29.000Z,1683.0
2023-04-15T02:21:29.000Z,1754.0
2023-04-15T02:22:29.000Z,1702.0
2023-04-15T02:23:29.000Z,1702.0
2023-04-15T02:24:28.000Z,1680.0
2023-04-15T02:25:29.000Z,1609.0
2023-04-15T02:26:29.000Z,1560.0
2023-04-15T02:27:29.000Z,1566.0
2023-04-15T02:28:29.000Z,1525.0
2023-04-15T02:29:29.000Z,1540.0
2023-04-15T02:30:29.000Z,1518.0
2023-04-15T02:31:29.000Z,1617.0
2023-04-15T02:32:28.000Z,1585.0
2023-04-15T02:33:29.000Z,1609.0
2023-04-15T02:34:29.000Z,1552.0
2023-04-15T02:35:29.000Z,1575.0
2023-04-15T02:36:29.000Z,1564.0
2023-04-15T02:37:29.000Z,1496.0
2023-04-15T02:38:29.000Z,1516.0
2023-04-15T02:39:29.000Z,1584.0
2023-04-15T02:40:28.000Z,1643.0
2023-04-15T02:41:29.000Z,1612.0
2023-04-15T02:42:29.000Z,1532.0
2023-04-15T02:43:29.000Z,1537.0
2023-04-15T02:44:29.000Z,1562.0
2023-04-15T02:45:28.000Z,1587.0
2023-04-15T02:46:29.000Z,1608.0
2023-04-15T02:47:29.000Z,1666.0
2023-04-15T02:48:29.000Z,1654.0
2023-04-15T02:49:29.000Z,1646.0
2023-04-15T02:50:29.000Z,1607.0
2023-04-15T02:51:29.000Z,1532.0
2023-04-15T02:52:29.000Z,1546.0
2023-04-15T02:53:28.000Z,1564.0
2023-04-15T02:54:29.000Z,1603.0
2023-04-15T02:55:29.000Z,1626.0
2023-04-15T02:56:29.000Z,1582.0
2023-04-15T02:57:29.000Z,1553.0
2023-04-15T02:58:28.000Z,1511.0
2023-04-15T02:59:29.000Z,1427.0
2023-04-15T03:00:29.000Z,1350.0
2023-04-15T03:01:28.000Z,1296.0
2023-04-15T03:02:29.000Z,1308.0
2023-04-15T03:03:29.000Z,1307.0
2023-04-15T03:04:29.000Z,1299.0
2023-04-15T03:05:29.000Z,1346.0
2023-04-15T03:06:28.000Z,1381.0
2023-04-15T03:07:29.000Z,1424.0
2023-04-15T03:08:29.000Z,1431.0
2023-04-15T03:09:29.000Z,1453.0
2023-04-15T03:10:29.000Z,1549.0
2023-04-15T03:11:28.000Z,1556.0
2023-04-15T03:12:29.000Z,1521.0
2023-04-15T03:13:29.000Z,1449.0
2023-04-15T03:14:28.000Z,1434.0
2023-04-15T03:15:29.000Z,1377.0
2023-04-15T03:16:29.000Z,1205.0
2023-04-15T03:17:29.000Z,1184.0
2023-04-15T03:18:29.000Z,1230.0
2023-04-15T03:19:28.000Z,1273.0
2023-04-15T03:20:29.000Z,1295.0
2023-04-15T03:21:29.000Z,1390.0
2023-04-15T03:22:29.000Z,1429.0
2023-04-15T03:23:29.000Z,1500.0
2023-04-15T03:24:28.000Z,1526.0
2023-04-15T03:25:29.000Z,1505.0
2023-04-15T03:26:29.000Z,1494.0
2023-04-15T03:27:28.000Z,1450.0
2023-04-15T03:28:29.000Z,1445.0
2023-04-15T03:29:29.000Z,1276.0
2023-04-15T03:30:29.000Z,1235.0
2023-04-15T03:31:29.000Z,1214.0
2023-04-15T03:32:28.000Z,1206.0
2023-04-15T03:33:29.000Z,1187.0
2023-04-15T03:34:29.000Z,1167.0
2023-04-15T03:35:29.000Z,1157.0
2023-04-15T03:36:29.000Z,1111.0
2023-04-15T03:37:29.000Z,1117.0
2023-04-15T03:38:28.000Z,1180.0
2023-04-15T03:39:29.000Z,1169.0
2023-04-15T03:40:29.000Z,1191.0
2023-04-15T03:41:29.000Z,1275.0
2023-04-15T03:42:29.000Z,1343.0
2023-04-15T03:43:28.000Z,1353.0
2023-04-15T03:44:29.000Z,1353.0
2023-04-15T03:45:29.000Z,1290.0
2023-04-15T03:46:28.000Z,1351.0
2023-04-15T03:47:29.000Z,1361.0
2023-04-15T03:48:30.000Z,1356.0
2023-04-15T03:49:29.000Z,1350.0
2023-04-15T03:50:29.000Z,1211.0
2023-04-15T03:51:28.000Z,1297.0
2023-04-15T03:52:29.000Z,1356.0
2023-04-15T03:53:29.000Z,1360.0
2023-04-15T03:54:29.000Z,1431.0
2023-04-15T03:55:29.000Z,1416.0
2023-04-15T03:56:28.000Z,1473.0
2023-04-15T03:57:29.000Z,1441.0
2023-04-15T03:58:29.000Z,1374.0
2023-04-15T03:59:29.000Z,1307.0
2023-04-15T04:00:29.000Z,1278.0
2023-04-15T04:01:29.000Z,1281.0
2023-04-15T04:02:29.000Z,1347.0
2023-04-15T04:03:29.000Z,1383.0
2023-04-15T04:04:28.000Z,1229.0
2023-04-15T04:05:29.000Z,1144.0
2023-04-15T04:06:29.000Z,1145.0
2023-04-15T04:07:29.000Z,1137.0
2023-04-15T04:08:29.000Z,1168.0
2023-04-15T04:09:28.000Z,1221.0
2023-04-15T04:10:29.000Z,1237.0
2023-04-15T04:11:29.000Z,1202.0
2023-04-15T04:12:28.000Z,1209.0
2023-04-15T04:13:29.000Z,1086.0
2023-04-15T04:14:29.000Z,1078.0
2023-04-15T04:15:29.000Z,1069.0
2023-04-15T04:16:29.000Z,1072.0
2023-04-15T04:17:28.000Z,1012.0
2023-04-15T04:18:29.000Z,959.0
2023-04-15T04:19:29.000Z,844.0
2023-04-15T04:20:29.000Z,733.0
2023-04-15T04:21:29.000Z,707.0
2023-04-15T04:22:30.000Z,651.0
2023-04-15T04:23:29.000Z,691.0
2023-04-15T04:24:29.000Z,766.0
2023-04-15T04:25:28.000Z,829.0
2023-04-15T04:26:29.000Z,802.0
2023-04-15T04:27:29.000Z,757.0
2023-04-15T04:28:29.000Z,876.0
2023-04-15T04:29:29.000Z,874.0
2023-04-15T04:30:28.000Z,957.0
2023-04-15T04:31:29.000Z,1036.0
2023-04-15T04:32:29.000Z,989.0
2023-04-15T04:33:29.000Z,884.0
2023-04-15T04:34:29.000Z,848.0
2023-04-15T04:35:28.000Z,1007.0
2023-04-15T04:36:29.000Z,910.0
2023-04-15T04:37:29.000Z,962.0
2023-04-15T04:38:29.000Z,1123.0
2023-04-15T04:39:29.000Z,1187.0
2023-04-15T04:40:29.000Z,1276.0
2023-04-15T04:41:28.000Z,1356.0
2023-04-15T04:42:29.000Z,1266.0
2023-04-15T04:43:29.000Z,1243.0
2023-04-15T04:44:29.000Z,1220.0
2023-04-15T04:45:29.000Z,1263.0
2023-04-15T04:46:28.000Z,1249.0
2023-04-15T04:47:29.000Z,1218.0
2023-04-15T04:48:29.000Z,1210.0
2023-04-15T04:49:28.000Z,1208.0
2023-04-15T04:50:29.000Z,1201.0
2023-04-15T04:51:29.000Z,1251.0
2023-04-15T04:52:29.000Z,1286.0
2023-04-15T04:53:29.000Z,1318.0
2023-04-15T04:54:28.000Z,1376.0
2023-04-15T04:55:29.000Z,1344.0
2023-04-15T04:56:29.000Z,1325.0
2023-04-15T04:57:29.000Z,1345.0
2023-04-15T04:58:29.000Z,1338.0
2023-04-15T04:59:30.000Z,1388.0
2023-04-15T05:00:29.000Z,1459.0
2023-04-15T05:01:29.000Z,1541.0
2023-04-15T05:02:28.000Z,1598.0
2023-04-15T05:03:29.000Z,1592.0
2023-04-15T05:04:29.000Z,1643.0
2023-04-15T05:05:29.000Z,1604.0
2023-04-15T05:06:29.000Z,1665.0
2023-04-15T05:07:28.000Z,1609.0
2023-04-15T05:08:29.000Z,1645.0
2023-04-15T05:09:29.000Z,1555.0
2023-04-15T05:10:29.000Z,1538.0
2023-04-15T05:11:29.000Z,1598.0
2023-04-15T05:12:30.000Z,1586.0
2023-04-15T05:13:29.000Z,1531.0
2023-04-15T05:14:29.000Z,1562.0
2023-04-15T05:15:28.000Z,1514.0
2023-04-15T05:16:29.000Z,1511.0
2023-04-15T05:17:29.000Z,1600.0
2023-04-15T05:18:29.000Z,1557.0
2023-04-15T05:19:29.000Z,1560.0
2023-04-15T05:20:28.000Z,1570.0
2023-04-15T05:21:29.000Z,1560.0
2023-04-15T05:22:29.000Z,1568.0
2023-04-15T05:23:29.000Z,1571.0
2023-04-15T05:24:29.000Z,1585.0
2023-04-15T05:25:30.000Z,1607.0
2023-04-15T05:26:29.000Z,1627.0
2023-04-15T05:27:29.000Z,1704.0
2023-04-15T05:28:28.000Z,1686.0
2023-04-15T05:29:29.000Z,1687.0
2023-04-15T05:30:29.000Z,1730.0
2023-04-15T05:31:29.000Z,1679.0
2023-04-15T05:32:29.000Z,1803.0
2023-04-15T05:33:28.000Z,1806.0
2023-04-15T05:34:29.000Z,1764.0
2023-04-15T05:35:29.000Z,1729.0
2023-04-15T05:36:29.000Z,1743.0
2023-04-15T05:37:29.000Z,1829.0
2023-04-15T05:38:29.000Z,1805.0
2023-04-15T05:39:28.000Z,1824.0
2023-04-15T05:40:29.000Z,1795.0
2023-04-15T05:41:29.000Z,1721.0
2023-04-15T05:42:29.000Z,1722.0
2023-04-15T05:43:29.000Z,1732.0
2023-04-15T05:44:28.000Z,1760.0
2023-04-15T05:45:29.000Z,1794.0
2023-04-15T05:46:29.000Z,1788.0
2023-04-15T05:47:29.000Z,1698.0
2023-04-15T05:48:29.000Z,1707.0
2023-04-15T05:49:30.000Z,1770.0
2023-04-15T05:50:29.000Z,1814.0
2023-04-15T05:51:29.000Z,1844.0
2023-04-15T05:52:28.000Z,1799.0
2023-04-15T05:53:29.000Z,1757.0
2023-04-15T05:54:29.000Z,1815.0
2023-04-15T05:55:29.000Z,1833.0
2023-04-15T05:56:29.000Z,1847.0
2023-04-15T05:57:28.000Z,1949.0
2023-04-15T05:58:29.000Z,1959.0
2023-04-15T05:59:29.000Z,1956.0
2023-04-15T06:00:29.000Z,1836.0
2023-04-15T06:01:29.000Z,1846.0
2023-04-15T06:02:29.000Z,1901.0
2023-04-15T06:03:29.000Z,1997.0
2023-04-15T06:04:29.000Z,1894.0
2023-04-15T06:05:28.000Z,1963.0
2023-04-15T06:06:29.000Z,1960.0
2023-04-15T06:07:29.000Z,1974.0
2023-04-15T06:08:29.000Z,1960.0
2023-04-15T06:09:29.000Z,1915.0
2023-04-15T06:10:28.000Z,1902.0
2023-04-15T06:11:29.000Z,1915.0
2023-04-15T06:12:29.000Z,1837.0
2023-04-15T06:13:28.000Z,1869.0
2023-04-15T06:14:29.000Z,1937.0
2023-04-15T06:15:30.000Z,1948.0
2023-04-15T06:16:29.000Z,1960.0
2023-04-15T06:17:29.000Z,2073.0
2023-04-15T06:18:28.000Z,1976.0
2023-04-15T06:19:29.000Z,1930.0
2023-04-15T06:20:29.000Z,1886.0
2023-04-15T06:21:29.000Z,1845.0
2023-04-15T06:22:29.000Z,1862.0
2023-04-15T06:23:28.000Z,1895.0
2023-04-15T06:24:29.000Z,1915.0
2023-04-15T06:25:29.000Z,1980.0
2023-04-15T06:26:29.000Z,2066.0
2023-04-15T06:27:29.000Z,1955.0
2023-04-15T06:28:29.000Z,1900.0
2023-04-15T06:29:29.000Z,1866.0
2023-04-15T06:30:29.000Z,1778.0
2023-04-15T06:31:28.000Z,1849.0
2023-04-15T06:32:29.000Z,1856.0
2023-04-15T06:33:29.000Z,1768.0
2023-04-15T06:34:29.000Z,1800.0
2023-04-15T06:35:29.000Z,1789.0
2023-04-15T06:36:28.000Z,1828.0
2023-04-15T06:37:29.000Z,1875.0
2023-04-15T06:38:29.000Z,1779.0
2023-04-15T06:39:30.000Z,1806.0
2023-04-15T06:40:29.000Z,1824.0
2023-04-15T06:41:29.000Z,1779.0
2023-04-15T06:42:28.000Z,1759.0
2023-04-15T06:43:29.000Z,1789.0
2023-04-15T06:44:29.000Z,1796.0
2023-04-15T06:45:29.000Z,1790.0
2023-04-15T06:46:29.000Z,1761.0
2023-04-15T06:47:28.000Z,1779.0
2023-04-15T06:48:29.000Z,1786.0
2023-04-15T06:49:29.000Z,1834.0
2023-04-15T06:50:28.000Z,1779.0
2023-04-15T06:51:29.000Z,1488.0
2023-04-15T06:52:29.000Z,1196.0
2023-04-15T06:53:29.000Z,1067.0
2023-04-15T06:54:29.000Z,981.0
2023-04-15T06:55:28.000Z,938.0
2023-04-15T06:56:29.000Z,865.0
2023-04-15T06:57:29.000Z,788.0
2023-04-15T06:58:29.000Z,762.0
2023-04-15T06:59:29.000Z,852.0
2023-04-15T07:00:30.000Z,889.0
2023-04-15T07:01:29.000Z,873.0
2023-04-15T07:02:29.000Z,904.0
2023-04-15T07:03:28.000Z,873.0
2023-04-15T07:04:29.000Z,884.0
2023-04-15T07:05:29.000Z,892.0
2023-04-15T07:06:29.000Z,1030.0
2023-04-15T07:07:29.000Z,1146.0
2023-04-15T07:08:28.000Z,1237.0
2023-04-15T07:09:29.000Z,1339.0
2023-04-15T07:10:29.000Z,1303.0
2023-04-15T07:11:29.000Z,1247.0
2023-04-15T07:12:29.000Z,1330.0
2023-04-15T07:13:28.000Z,1370.0
2023-04-15T07:14:29.000Z,1402.0
2023-04-15T07:15:29.000Z,1419.0
2023-04-15T07:16:28.000Z,1439.0
2023-04-15T07:17:29.000Z,1397.0
2023-04-15T07:18:29.000Z,1426.0
2023-04-15T07:19:29.000Z,1409.0
2023-04-15T07:20:29.000Z,1412.0
2023-04-15T07:21:28.000Z,1453.0
2023-04-15T07:22:29.000Z,1460.0
2023-04-15T07:23:29.000Z,1478.0
2023-04-15T07:24:29.000Z,1470.0
2023-04-15T07:25:29.000Z,1489.0
2023-04-15T07:26:30.000Z,1473.0
2023-04-15T07:27:29.000Z,1482.0
2023-04-15T07:28:29.000Z,1451.0
2023-04-15T07:29:28.000Z,1450.0
2023-04-15T07:30:29.000Z,1443.0
2023-04-15T07:31:29.000Z,1431.0
2023-04-15T07:32:29.000Z,1426.0
2023-04-15T07:33:29.000Z,1393.0
2023-04-15T07:34:28.000Z,1397.0
2023-04-15T07:35:29.000Z,1429.0
2023-04-15T07:36:29.000Z,1411.0
2023-04-15T07:37:28.000Z,1374.0
2023-04-15T07:38:29.000Z,1390.0
2023-04-15T07:39:29.000Z,1408.0
2023-04-15T07:40:28.000Z,1398.0
2023-04-15T07:41:29.000Z,1396.0
2023-04-15T07:42:29.000Z,1365.0
2023-04-15T07:43:29.000Z,1349.0
2023-04-15T07:44:29.000Z,1382.0
2023-04-15T07:45:28.000Z,1385.0
2023-04-15T07:46:29.000Z,1343.0
2023-04-15T07:47:29.000Z,1361.0
2023-04-15T07:48:28.000Z,1402.0
2023-04-15T07:49:29.000Z,1392.0
2023-04-15T07:50:29.000Z,1435.0
2023-04-15T07:51:29.000Z,1385.0
2023-04-15T07:52:29.000Z,1477.0
2023-04-15T07:53:28.000Z,1545.0
2023-04-15T07:54:29.000Z,1592.0
2023-04-15T07:55:29.000Z,1500.0
2023-04-15T07:56:29.000Z,1436.0
2023-04-15T07:57:29.000Z,1483.0
2023-04-15T07:58:28.000Z,1523.0
2023-04-15T07:59:29.000Z,1553.0
2023-04-15T08:00:29.000Z,1548.0
2023-04-15T08:01:28.000Z,1507.0
2023-04-15T08:02:29.000Z,1517.0
2023-04-15T08:03:29.000Z,1551.0
2023-04-15T08:04:29.000Z,1570.0
2023-04-15T08:05:29.000Z,1556.0
2023-04-15T08:06:28.000Z,1630.0
2023-04-15T08:07:29.000Z,1688.0
2023-04-15T08:08:29.000Z,1521.0
2023-04-15T08:09:29.000Z,1287.0
2023-04-15T08:10:29.000Z,1207.0
2023-04-15T08:11:28.000Z,1191.0
2023-04-15T08:12:29.000Z,1208.0
2023-04-15T08:13:29.000Z,1279.0
2023-04-15T08:14:28.000Z,1397.0
2023-04-15T08:15:29.000Z,1491.0
2023-04-15T08:16:29.000Z,1537.0
2023-04-15T08:17:29.000Z,1549.0
2023-04-15T08:18:29.000Z,1596.0
2023-04-15T08:19:28.000Z,1587.0
2023-04-15T08:20:29.000Z,1691.0
2023-04-15T08:21:29.000Z,1736.0
2023-04-15T08:22:29.000Z,1770.0
2023-04-15T08:23:29.000Z,1798.0
2023-04-15T08:24:28.000Z,1804.0
2023-04-15T08:25:29.000Z,1841.0
2023-04-15T08:26:29.000Z,1857.0
2023-04-15T08:27:28.000Z,1956.0
2023-04-15T08:28:29.000Z,1983.0
2023-04-15T08:29:29.000Z,2039.0
2023-04-15T08:30:29.000Z,1989.0
2023-04-15T08:31:29.000Z,1841.0
2023-04-15T08:32:28.000Z,1801.0
2023-04-15T08:33:29.000Z,1909.0
2023-04-15T08:34:29.000Z,2008.0
2023-04-15T08:35:29.000Z,2063.0
2023-04-15T08:36:29.000Z,2105.0
2023-04-15T08:37:29.000Z,2173.0
2023-04-15T08:38:28.000Z,2119.0
2023-04-15T08:39:29.000Z,2108.0
2023-04-15T08:40:29.000Z,2006.0
2023-04-15T08:41:29.000Z,2043.0
2023-04-15T08:42:29.000Z,2117.0
2023-04-15T08:43:28.000Z,2084.0
2023-04-15T08:44:29.000Z,2114.0
2023-04-15T08:45:29.000Z,2114.0
2023-04-15T08:46:28.000Z,2074.0
2023-04-15T08:47:29.000Z,1950.0
2023-04-15T08:48:29.000Z,2041.0
2023-04-15T08:49:29.000Z,2058.0
2023-04-15T08:50:29.000Z,2041.0
2023-04-15T08:51:28.000Z,2074.0
2023-04-15T08:52:29.000Z,2111.0
2023-04-15T08:53:29.000Z,2138.0
2023-04-15T08:54:29.000Z,2067.0
2023-04-15T08:55:29.000Z,2056.0
2023-04-15T08:56:28.000Z,2099.0
2023-04-15T08:57:29.000Z,2160.0
2023-04-15T08:58:29.000Z,2247.0
2023-04-15T08:59:28.000Z,1857.0
2023-04-15T09:00:29.000Z,1127.0
2023-04-15T09:01:29.000Z,840.0
2023-04-15T09:02:29.000Z,747.0
2023-04-15T09:03:29.000Z,786.0
2023-04-15T09:04:28.000Z,819.0
2023-04-15T09:05:29.000Z,819.0
2023-04-15T09:06:29.000Z,807.0
2023-04-15T09:07:29.000Z,802.0
2023-04-15T09:08:29.000Z,784.0
2023-04-15T09:09:28.000Z,850.0
2023-04-15T09:10:29.000Z,986.0
2023-04-15T09:11:29.000Z,974.0
2023-04-15T09:12:28.000Z,971.0
2023-04-15T09:13:29.000Z,963.0
2023-04-15T09:14:29.000Z,1038.0
2023-04-15T09:15:29.000Z,1142.0
2023-04-15T09:16:29.000Z,1233.0
2023-04-15T09:17:28.000Z,1283.0
2023-04-15T09:18:29.000Z,1304.0
2023-04-15T09:19:29.000Z,1248.0
2023-04-15T09:20:29.000Z,1010.0
2023-04-15T09:21:29.000Z,1115.0
2023-04-15T09:22:28.000Z,1073.0
2023-04-15T09:23:29.000Z,1056.0
2023-04-15T09:24:29.000Z,1118.0
2023-04-15T09:25:28.000Z,1142.0
2023-04-15T09:26:29.000Z,1240.0
2023-04-15T09:27:29.000Z,1232.0
2023-04-15T09:28:29.000Z,1147.0
2023-04-15T09:29:29.000Z,1175.0
2023-04-15T09:30:28.000Z,1136.0
2023-04-15T09:31:29.000Z,1134.0
2023-04-15T09:32:29.000Z,1123.0
2023-04-15T09:33:29.000Z,1111.0
2023-04-15T09:34:29.000Z,1189.0
2023-04-15T09:35:28.000Z,1633.0
2023-04-15T09:36:29.000Z,1975.0
2023-04-15T09:37:29.000Z,2266.0
2023-04-15T09:38:29.000Z,2570.0
2023-04-15T09:39:29.000Z,2781.0
2023-04-15T09:40:29.000Z,2991.0
2023-04-15T09:41:28.000Z,2991.0
2023-04-15T09:42:29.000Z,2958.0
2023-04-15T09:43:29.000Z,2833.0
2023-04-15T09:44:29.000Z,2851.0
2023-04-15T09:45:29.000Z,2814.0
2023-04-15T09:46:28.000Z,2771.0
2023-04-15T09:47:29.000Z,2900.0
2023-04-15T09:48:29.000Z,2858.0
2023-04-15T09:49:28.000Z,2851.0
2023-04-15T09:50:29.000Z,2885.0
2023-04-15T09:51:29.000Z,2939.0
2023-04-15T09:52:29.000Z,2928.0
2023-04-15T09:53:29.000Z,3102.0
2023-04-15T09:54:28.000Z,3196.0
2023-04-15T09:55:29.000Z,3369.0
2023-04-15T09:56:29.000Z,3197.0
2023-04-15T09:57:29.000Z,3100.0
2023-04-15T09:58:29.000Z,2972.0
2023-04-15T09:59:30.000Z,3030.0
2023-04-15T10:00:29.000Z,2992.0
2023-04-15T10:01:29.000Z,2969.0
2023-04-15T10:02:28.000Z,2936.0
2023-04-15T10:03:29.000Z,3048.0
2023-04-15T10:04:29.000Z,3130.0
2023-04-15T10:05:29.000Z,2954.0
2023-04-15T10:06:29.000Z,2768.0
2023-04-15T10:07:28.000Z,2690.0
2023-04-15T10:08:29.000Z,2589.0
2023-04-15T10:09:29.000Z,2641.0
2023-04-15T10:10:29.000Z,2747.0
2023-04-15T10:11:29.000Z,2736.0
2023-04-15T10:12:28.000Z,2844.0
2023-04-15T10:13:29.000Z,2780.0
2023-04-15T10:14:29.000Z,2767.0
2023-04-15T10:15:28.000Z,2887.0
2023-04-15T10:16:29.000Z,2875.0
2023-04-15T10:17:29.000Z,2963.0
2023-04-15T10:18:29.000Z,3048.0
2023-04-15T10:19:29.000Z,2958.0
2023-04-15T10:20:28.000Z,2896.0
2023-04-15T10:21:29.000Z,2854.0
2023-04-15T10:22:29.000Z,2926.0
2023-04-15T10:23:29.000Z,3045.0
2023-04-15T10:24:29.000Z,3019.0
2023-04-15T10:25:29.000Z,3046.0
2023-04-15T10:26:29.000Z,3063.0
2023-04-15T10:27:29.000Z,2903.0
2023-04-15T10:28:28.000Z,3021.0
2023-04-15T10:29:29.000Z,3115.0
2023-04-15T10:30:29.000Z,3085.0
2023-04-15T10:31:29.000Z,3196.0
2023-04-15T10:32:29.000Z,3131.0
2023-04-15T10:33:28.000Z,3223.0
2023-04-15T10:34:29.000Z,3277.0
2023-04-15T10:35:29.000Z,3304.0
2023-04-15T10:36:28.000Z,3417.0
2023-04-15T10:37:29.000Z,3459.0
2023-04-15T10:38:29.000Z,3530.0
2023-04-15T10:39:28.000Z,3345.0
2023-04-15T10:40:29.000Z,3337.0
2023-04-15T10:41:29.000Z,3316.0
2023-04-15T10:42:29.000Z,3271.0
2023-04-15T10:43:29.000Z,3163.0
2023-04-15T10:44:28.000Z,3060.0
2023-04-15T10:45:29.000Z,2989.0
2023-04-15T10:46:29.000Z,2944.0
2023-04-15T10:47:28.000Z,3014.0
2023-04-15T10:48:29.000Z,2961.0
2023-04-15T10:49:28.000Z,2933.0
2023-04-15T10:50:29.000Z,3112.0
2023-04-15T10:51:29.000Z,3262.0
2023-04-15T10:52:28.000Z,3177.0
2023-04-15T10:53:29.000Z,3100.0
2023-04-15T10:54:29.000Z,3201.0
2023-04-15T10:55:29.000Z,3270.0
2023-04-15T10:56:29.000Z,3304.0
2023-04-15T10:57:28.000Z,3268.0
2023-04-15T10:58:29.000Z,3190.0
2023-04-15T10:59:29.000Z,3068.0
2023-04-15T11:00:29.000Z,3097.0
2023-04-15T11:01:29.000Z,2913.0
2023-04-15T11:02:29.000Z,2941.0
2023-04-15T11:03:29.000Z,2924.0
2023-04-15T11:04:29.000Z,2965.0
2023-04-15T11:05:28.000Z,2887.0
2023-04-15T11:06:29.000Z,2839.0
2023-04-15T11:07:29.000Z,2960.0
2023-04-15T11:08:29.000Z,3019.0
2023-04-15T11:09:29.000Z,3159.0
2023-04-15T11:10:28.000Z,3109.0
2023-04-15T11:11:29.000Z,3279.0
2023-04-15T11:12:29.000Z,3296.0
2023-04-15T11:13:28.000Z,3150.0
2023-04-15T11:14:29.000Z,3298.0
2023-04-15T11:15:29.000Z,3248.0
2023-04-15T11:16:29.000Z,3128.0
2023-04-15T11:17:29.000Z,3129.0
2023-04-15T11:18:28.000Z,3058.0
2023-04-15T11:19:29.000Z,3075.0
2023-04-15T11:20:29.000Z,3161.0
2023-04-15T11:21:29.000Z,3187.0
2023-04-15T11:22:29.000Z,3387.0
2023-04-15T11:23:28.000Z,3475.0
2023-04-15T11:24:29.000Z,3525.0
2023-04-15T11:25:29.000Z,3446.0
2023-04-15T11:26:28.000Z,3436.0
2023-04-15T11:27:29.000Z,3438.0
2023-04-15T11:28:29.000Z,3428.0
2023-04-15T11:29:29.000Z,3515.0
2023-04-15T11:30:29.000Z,3673.0
2023-04-15T11:31:28.000Z,3602.0
2023-04-15T11:32:29.000Z,3625.0
2023-04-15T11:33:29.000Z,3549.0
2023-04-15T11:34:29.000Z,3510.0
2023-04-15T11:35:29.000Z,3597.0
2023-04-15T11:36:28.000Z,3502.0
2023-04-15T11:37:29.000Z,3422.0
2023-04-15T11:38:29.000Z,3478.0
2023-04-15T11:39:28.000Z,3358.0
2023-04-15T11:40:29.000Z,3675.0
2023-04-15T11:41:29.000Z,3444.0
2023-04-15T11:42:28.000Z,3390.0
2023-04-15T11:43:29.000Z,3404.0
2023-04-15T11:44:29.000Z,3524.0
2023-04-15T11:45:29.000Z,3636.0
2023-04-15T11:46:29.000Z,3628.0
2023-04-15T11:47:28.000Z,3319.0
2023-04-15T11:48:29.000Z,3269.0
2023-04-15T11:49:29.000Z,3163.0
2023-04-15T11:50:28.000Z,3084.0
2023-04-15T11:51:29.000Z,3023.0
2023-04-15T11:52:29.000Z,3202.0
2023-04-15T11:53:29.000Z,2988.0
2023-04-15T11:54:29.000Z,2966.0
2023-04-15T11:55:28.000Z,2916.0
2023-04-15T11:56:29.000Z,2992.0
2023-04-15T11:57:29.000Z,3117.0
2023-04-15T11:58:29.000Z,3203.0
2023-04-15T11:59:29.000Z,3230.0
2023-04-15T12:00:28.000Z,3251.0
2023-04-15T12:01:29.000Z,3180.0
2023-04-15T12:02:29.000Z,3357.0
2023-04-15T12:03:28.000Z,3379.0
2023-04-15T12:04:29.000Z,3332.0
2023-04-15T12:05:29.000Z,3447.0
2023-04-15T12:06:29.000Z,3475.0
2023-04-15T12:07:29.000Z,3446.0
2023-04-15T12:08:28.000Z,3374.0
2023-04-15T12:09:29.000Z,3564.0
2023-04-15T12:10:29.000Z,3509.0
2023-04-15T12:11:29.000Z,3491.0
2023-04-15T12:12:29.000Z,3476.0
2023-04-15T12:13:28.000Z,3516.0
2023-04-15T12:14:29.000Z,3406.0
2023-04-15T12:15:29.000Z,3317.0
2023-04-15T12:16:28.000Z,3427.0
2023-04-15T12:17:29.000Z,3224.0
2023-04-15T12:18:29.000Z,3232.0
2023-04-15T12:19:29.000Z,3385.0
2023-04-15T12:20:29.000Z,3452.0
2023-04-15T12:21:28.000Z,3491.0
2023-04-15T12:22:29.000Z,3696.0
2023-04-15T12:23:29.000Z,3872.0
2023-04-15T12:24:29.000Z,3871.0
2023-04-15T12:25:29.000Z,3803.0
2023-04-15T12:26:28.000Z,3737.0
2023-04-15T12:27:29.000Z,3884.0
2023-04-15T12:28:29.000Z,3953.0
2023-04-15T12:29:28.000Z,4046.0